Forside
METAR-TAF:

METAR-TAF

Lufthavne :

Boscobel Airport

Boscobel, Wisconsin, USA

Breddekreds: 43-09-22N, længdekreds: 090-40-39W, højde: 205 m

Aktuelle vejr

Denne rapport blev lavet for 33 minutter siden, kl. 18:53 UTC
Vind 6 kt fra sydvest
Temperatur 6°C
Fugtighed 49%
Tryk 1018 hPa
Sigt: 16.1 km
skyfri

METAR: KOVS 221853Z AUTO 23006KT 10SM CLR 06/M04 A3007 RMK AO2 SLP191 T00561039

Tid: 13:26 (19:26 UTC)


TAF: fraværende

Vejrobservationer og prognoser fra mere end 4000 lufthavne (METAR og TAF).

De gule og røde prikker repræsenterer de meteorologiske stationer.

Flyt musen over at se navnet på stationen.

Så klik over at se vejr observationer og prognoser.

At skifte det kort: Klik på de grønne knapper med et sort kors for at zoome ind; på den grønne knap med en bindestreg for at zoome ud; eller på de grønne pile for tilstødende kort.


METAR-TAF: